sensor_id;sensor_type;location;lat;lon;timestamp;temperature;humidity
43338;DHT22;28933;52.492;13.434;2023-09-18T00:00:29;20.60;97.60
43338;DHT22;28933;52.492;13.434;2023-09-18T00:03:20;20.60;97.70
43338;DHT22;28933;52.492;13.434;2023-09-18T00:06:06;20.50;97.70
43338;DHT22;28933;52.492;13.434;2023-09-18T00:08:54;20.50;97.70
43338;DHT22;28933;52.492;13.434;2023-09-18T00:11:40;20.50;97.80
43338;DHT22;28933;52.492;13.434;2023-09-18T00:14:26;20.50;97.90
43338;DHT22;28933;52.492;13.434;2023-09-18T00:17:13;20.40;97.90
43338;DHT22;28933;52.492;13.434;2023-09-18T00:19:59;20.40;97.90
43338;DHT22;28933;52.492;13.434;2023-09-18T00:22:45;20.40;98.00
43338;DHT22;28933;52.492;13.434;2023-09-18T00:25:30;20.40;98.00
43338;DHT22;28933;52.492;13.434;2023-09-18T00:28:17;20.40;98.00
43338;DHT22;28933;52.492;13.434;2023-09-18T00:31:03;20.40;98.10
43338;DHT22;28933;52.492;13.434;2023-09-18T00:33:49;20.40;98.20
43338;DHT22;28933;52.492;13.434;2023-09-18T00:36:35;20.30;98.20
43338;DHT22;28933;52.492;13.434;2023-09-18T00:39:21;20.30;98.30
43338;DHT22;28933;52.492;13.434;2023-09-18T00:42:07;20.30;98.30
43338;DHT22;28933;52.492;13.434;2023-09-18T00:44:53;20.30;98.40
43338;DHT22;28933;52.492;13.434;2023-09-18T00:47:39;20.30;98.40
43338;DHT22;28933;52.492;13.434;2023-09-18T00:50:25;20.20;98.40
43338;DHT22;28933;52.492;13.434;2023-09-18T00:53:18;20.20;98.40
43338;DHT22;28933;52.492;13.434;2023-09-18T00:56:05;20.20;98.50
43338;DHT22;28933;52.492;13.434;2023-09-18T00:58:52;20.20;98.50
43338;DHT22;28933;52.492;13.434;2023-09-18T01:01:40;20.20;98.60
43338;DHT22;28933;52.492;13.434;2023-09-18T01:04:26;20.20;98.60
43338;DHT22;28933;52.492;13.434;2023-09-18T01:07:14;20.20;98.60
43338;DHT22;28933;52.492;13.434;2023-09-18T01:10:00;20.10;98.60
43338;DHT22;28933;52.492;13.434;2023-09-18T01:13:00;20.10;98.70
43338;DHT22;28933;52.492;13.434;2023-09-18T01:16:05;20.10;98.70
43338;DHT22;28933;52.492;13.434;2023-09-18T01:18:52;20.10;98.70
43338;DHT22;28933;52.492;13.434;2023-09-18T01:21:38;20.00;98.80
43338;DHT22;28933;52.492;13.434;2023-09-18T01:24:24;20.00;98.80
43338;DHT22;28933;52.492;13.434;2023-09-18T01:27:15;20.00;98.90
43338;DHT22;28933;52.492;13.434;2023-09-18T01:30:04;20.00;99.00
43338;DHT22;28933;52.492;13.434;2023-09-18T01:32:50;20.00;99.00
43338;DHT22;28933;52.492;13.434;2023-09-18T01:35:37;20.00;99.10
43338;DHT22;28933;52.492;13.434;2023-09-18T01:38:24;20.00;99.10
43338;DHT22;28933;52.492;13.434;2023-09-18T01:41:11;19.90;99.10
43338;DHT22;28933;52.492;13.434;2023-09-18T01:43:57;19.90;99.10
43338;DHT22;28933;52.492;13.434;2023-09-18T01:46:44;19.90;99.20
43338;DHT22;28933;52.492;13.434;2023-09-18T01:49:34;19.80;99.20
43338;DHT22;28933;52.492;13.434;2023-09-18T01:52:21;19.80;99.50
43338;DHT22;28933;52.492;13.434;2023-09-18T01:55:07;19.80;99.50
43338;DHT22;28933;52.492;13.434;2023-09-18T01:57:53;19.80;99.40
43338;DHT22;28933;52.492;13.434;2023-09-18T02:00:40;19.80;99.40
43338;DHT22;28933;52.492;13.434;2023-09-18T02:03:25;19.80;99.50
43338;DHT22;28933;52.492;13.434;2023-09-18T02:06:11;19.70;99.50
43338;DHT22;28933;52.492;13.434;2023-09-18T02:08:57;19.70;99.50
43338;DHT22;28933;52.492;13.434;2023-09-18T02:11:46;19.70;99.60
43338;DHT22;28933;52.492;13.434;2023-09-18T02:14:32;19.70;99.60
43338;DHT22;28933;52.492;13.434;2023-09-18T02:17:19;19.60;99.60
43338;DHT22;28933;52.492;13.434;2023-09-18T02:20:06;19.60;99.70
43338;DHT22;28933;52.492;13.434;2023-09-18T02:22:57;19.60;99.70
43338;DHT22;28933;52.492;13.434;2023-09-18T02:25:43;19.50;99.70
43338;DHT22;28933;52.492;13.434;2023-09-18T02:28:28;19.50;99.80
43338;DHT22;28933;52.492;13.434;2023-09-18T02:31:15;19.50;99.80
43338;DHT22;28933;52.492;13.434;2023-09-18T02:34:02;19.50;99.80
43338;DHT22;28933;52.492;13.434;2023-09-18T02:36:48;19.50;99.90
43338;DHT22;28933;52.492;13.434;2023-09-18T02:39:34;19.50;99.90
43338;DHT22;28933;52.492;13.434;2023-09-18T02:42:20;19.50;99.90
43338;DHT22;28933;52.492;13.434;2023-09-18T02:45:06;19.50;99.90
43338;DHT22;28933;52.492;13.434;2023-09-18T02:47:54;19.40;99.90
43338;DHT22;28933;52.492;13.434;2023-09-18T02:50:39;19.40;99.90
43338;DHT22;28933;52.492;13.434;2023-09-18T02:53:26;19.40;99.90
43338;DHT22;28933;52.492;13.434;2023-09-18T02:56:11;19.40;99.90
43338;DHT22;28933;52.492;13.434;2023-09-18T02:58:57;19.40;99.90
43338;DHT22;28933;52.492;13.434;2023-09-18T03:01:43;19.40;99.90
43338;DHT22;28933;52.492;13.434;2023-09-18T03:04:31;19.30;99.90
43338;DHT22;28933;52.492;13.434;2023-09-18T03:07:17;19.40;99.90
43338;DHT22;28933;52.492;13.434;2023-09-18T03:10:03;19.30;99.90
43338;DHT22;28933;52.492;13.434;2023-09-18T03:12:50;19.30;99.90
43338;DHT22;28933;52.492;13.434;2023-09-18T03:15:36;19.30;99.90
43338;DHT22;28933;52.492;13.434;2023-09-18T03:18:22;19.30;99.90
43338;DHT22;28933;52.492;13.434;2023-09-18T03:21:08;19.30;99.90
43338;DHT22;28933;52.492;13.434;2023-09-18T03:23:54;19.20;99.90
43338;DHT22;28933;52.492;13.434;2023-09-18T03:26:40;19.20;99.90
43338;DHT22;28933;52.492;13.434;2023-09-18T03:29:26;19.20;99.90
43338;DHT22;28933;52.492;13.434;2023-09-18T03:32:12;19.20;99.90
43338;DHT22;28933;52.492;13.434;2023-09-18T03:34:59;19.20;99.90
43338;DHT22;28933;52.492;13.434;2023-09-18T03:37:49;19.10;99.90
43338;DHT22;28933;52.492;13.434;2023-09-18T03:40:35;19.10;99.90
43338;DHT22;28933;52.492;13.434;2023-09-18T03:43:21;19.10;99.90
43338;DHT22;28933;52.492;13.434;2023-09-18T03:46:07;19.10;99.90
43338;DHT22;28933;52.492;13.434;2023-09-18T03:48:53;19.10;99.90
43338;DHT22;28933;52.492;13.434;2023-09-18T03:51:40;19.10;99.90
43338;DHT22;28933;52.492;13.434;2023-09-18T03:54:26;19.10;99.90
43338;DHT22;28933;52.492;13.434;2023-09-18T03:57:12;19.10;99.90
43338;DHT22;28933;52.492;13.434;2023-09-18T03:59:58;19.00;99.90
43338;DHT22;28933;52.492;13.434;2023-09-18T04:02:44;19.00;99.90
43338;DHT22;28933;52.492;13.434;2023-09-18T04:05:30;19.00;99.90
43338;DHT22;28933;52.492;13.434;2023-09-18T04:08:17;19.00;99.90
43338;DHT22;28933;52.492;13.434;2023-09-18T04:11:03;19.00;99.90
43338;DHT22;28933;52.492;13.434;2023-09-18T04:13:50;19.00;99.90
43338;DHT22;28933;52.492;13.434;2023-09-18T04:16:35;19.00;99.90
43338;DHT22;28933;52.492;13.434;2023-09-18T04:19:22;19.00;99.90
43338;DHT22;28933;52.492;13.434;2023-09-18T04:22:08;19.00;99.90
43338;DHT22;28933;52.492;13.434;2023-09-18T04:24:54;18.90;99.90
43338;DHT22;28933;52.492;13.434;2023-09-18T04:27:40;18.90;99.90
43338;DHT22;28933;52.492;13.434;2023-09-18T04:30:26;18.90;99.90
43338;DHT22;28933;52.492;13.434;2023-09-18T04:33:16;18.90;99.90
43338;DHT22;28933;52.492;13.434;2023-09-18T04:36:02;18.90;99.90
43338;DHT22;28933;52.492;13.434;2023-09-18T04:38:48;18.90;99.90
43338;DHT22;28933;52.492;13.434;2023-09-18T04:41:34;18.90;99.90
43338;DHT22;28933;52.492;13.434;2023-09-18T04:44:20;18.90;99.90
43338;DHT22;28933;52.492;13.434;2023-09-18T04:47:06;18.80;99.90
43338;DHT22;28933;52.492;13.434;2023-09-18T04:49:52;18.80;99.90
43338;DHT22;28933;52.492;13.434;2023-09-18T04:52:38;18.80;99.90
43338;DHT22;28933;52.492;13.434;2023-09-18T04:55:24;18.80;99.90
43338;DHT22;28933;52.492;13.434;2023-09-18T04:58:10;18.80;99.90
43338;DHT22;28933;52.492;13.434;2023-09-18T05:00:57;18.80;99.90
43338;DHT22;28933;52.492;13.434;2023-09-18T05:03:43;18.80;99.90
43338;DHT22;28933;52.492;13.434;2023-09-18T05:06:29;18.80;99.90
43338;DHT22;28933;52.492;13.434;2023-09-18T05:09:15;18.80;99.90
43338;DHT22;28933;52.492;13.434;2023-09-18T05:12:04;18.80;99.90
43338;DHT22;28933;52.492;13.434;2023-09-18T05:14:50;18.80;99.90
43338;DHT22;28933;52.492;13.434;2023-09-18T05:20:33;18.80;99.90
43338;DHT22;28933;52.492;13.434;2023-09-18T05:23:20;18.80;99.90
43338;DHT22;28933;52.492;13.434;2023-09-18T05:26:05;18.80;99.90
43338;DHT22;28933;52.492;13.434;2023-09-18T05:28:51;18.80;99.90
43338;DHT22;28933;52.492;13.434;2023-09-18T05:31:39;18.90;99.90
43338;DHT22;28933;52.492;13.434;2023-09-18T05:34:25;18.90;99.90
43338;DHT22;28933;52.492;13.434;2023-09-18T05:37:11;18.90;99.90
43338;DHT22;28933;52.492;13.434;2023-09-18T05:39:57;18.90;99.90
43338;DHT22;28933;52.492;13.434;2023-09-18T05:42:44;19.00;99.90
43338;DHT22;28933;52.492;13.434;2023-09-18T05:45:30;19.00;99.90
43338;DHT22;28933;52.492;13.434;2023-09-18T05:48:17;19.00;99.90
43338;DHT22;28933;52.492;13.434;2023-09-18T05:51:03;19.10;99.90
43338;DHT22;28933;52.492;13.434;2023-09-18T05:53:49;19.20;99.90
43338;DHT22;28933;52.492;13.434;2023-09-18T05:56:35;19.20;99.90
43338;DHT22;28933;52.492;13.434;2023-09-18T05:59:21;19.20;99.90
43338;DHT22;28933;52.492;13.434;2023-09-18T06:02:07;19.20;99.90
43338;DHT22;28933;52.492;13.434;2023-09-18T06:04:57;19.30;99.90
43338;DHT22;28933;52.492;13.434;2023-09-18T06:07:44;19.40;99.90
43338;DHT22;28933;52.492;13.434;2023-09-18T06:10:33;19.40;99.90
43338;DHT22;28933;52.492;13.434;2023-09-18T06:13:20;19.50;99.90
43338;DHT22;28933;52.492;13.434;2023-09-18T06:16:06;19.50;99.90
43338;DHT22;28933;52.492;13.434;2023-09-18T06:18:53;19.60;99.90
43338;DHT22;28933;52.492;13.434;2023-09-18T06:21:41;19.60;99.90
43338;DHT22;28933;52.492;13.434;2023-09-18T06:24:27;19.70;99.90
43338;DHT22;28933;52.492;13.434;2023-09-18T06:27:13;19.70;99.90
43338;DHT22;28933;52.492;13.434;2023-09-18T06:29:59;19.80;99.90
43338;DHT22;28933;52.492;13.434;2023-09-18T06:32:45;19.90;99.90
43338;DHT22;28933;52.492;13.434;2023-09-18T06:35:31;19.90;99.90
43338;DHT22;28933;52.492;13.434;2023-09-18T06:38:17;20.00;99.90
43338;DHT22;28933;52.492;13.434;2023-09-18T06:41:03;20.00;99.90
43338;DHT22;28933;52.492;13.434;2023-09-18T06:43:49;20.10;99.90
43338;DHT22;28933;52.492;13.434;2023-09-18T06:46:35;20.10;99.90
43338;DHT22;28933;52.492;13.434;2023-09-18T06:49:21;20.20;99.90
43338;DHT22;28933;52.492;13.434;2023-09-18T06:52:08;20.30;99.90
43338;DHT22;28933;52.492;13.434;2023-09-18T06:54:54;20.30;99.90
43338;DHT22;28933;52.492;13.434;2023-09-18T06:57:40;20.40;99.90
43338;DHT22;28933;52.492;13.434;2023-09-18T07:00:26;20.40;99.90
43338;DHT22;28933;52.492;13.434;2023-09-18T07:03:12;20.50;99.90
43338;DHT22;28933;52.492;13.434;2023-09-18T07:05:58;20.60;99.90
43338;DHT22;28933;52.492;13.434;2023-09-18T07:08:44;20.60;99.90
43338;DHT22;28933;52.492;13.434;2023-09-18T07:11:30;20.70;99.90
43338;DHT22;28933;52.492;13.434;2023-09-18T07:14:16;20.80;99.90
43338;DHT22;28933;52.492;13.434;2023-09-18T07:17:02;20.80;99.90
43338;DHT22;28933;52.492;13.434;2023-09-18T07:19:48;20.90;99.90
43338;DHT22;28933;52.492;13.434;2023-09-18T07:22:34;21.00;99.90
43338;DHT22;28933;52.492;13.434;2023-09-18T07:25:20;21.00;99.90
43338;DHT22;28933;52.492;13.434;2023-09-18T07:28:06;21.10;99.90
43338;DHT22;28933;52.492;13.434;2023-09-18T07:30:52;21.20;99.90
43338;DHT22;28933;52.492;13.434;2023-09-18T07:33:38;21.20;99.90
43338;DHT22;28933;52.492;13.434;2023-09-18T07:36:24;21.30;99.90
43338;DHT22;28933;52.492;13.434;2023-09-18T07:39:10;21.40;99.90
43338;DHT22;28933;52.492;13.434;2023-09-18T07:41:57;21.40;99.90
43338;DHT22;28933;52.492;13.434;2023-09-18T07:44:43;21.50;99.90
43338;DHT22;28933;52.492;13.434;2023-09-18T07:47:29;21.60;99.80
43338;DHT22;28933;52.492;13.434;2023-09-18T07:50:16;21.70;99.70
43338;DHT22;28933;52.492;13.434;2023-09-18T07:53:03;21.80;99.60
43338;DHT22;28933;52.492;13.434;2023-09-18T07:55:56;21.90;99.50
43338;DHT22;28933;52.492;13.434;2023-09-18T07:58:43;21.90;99.30
43338;DHT22;28933;52.492;13.434;2023-09-18T08:01:29;22.00;99.30
43338;DHT22;28933;52.492;13.434;2023-09-18T08:04:17;22.10;99.20
43338;DHT22;28933;52.492;13.434;2023-09-18T08:07:04;22.20;99.10
43338;DHT22;28933;52.492;13.434;2023-09-18T08:09:51;22.30;98.80
43338;DHT22;28933;52.492;13.434;2023-09-18T08:12:37;22.30;98.70
43338;DHT22;28933;52.492;13.434;2023-09-18T08:15:23;22.40;98.70
43338;DHT22;28933;52.492;13.434;2023-09-18T08:18:10;22.40;98.50
43338;DHT22;28933;52.492;13.434;2023-09-18T08:20:56;22.50;98.40
43338;DHT22;28933;52.492;13.434;2023-09-18T08:23:44;22.60;98.30
43338;DHT22;28933;52.492;13.434;2023-09-18T08:26:30;22.70;98.10
43338;DHT22;28933;52.492;13.434;2023-09-18T08:29:16;22.80;98.00
43338;DHT22;28933;52.492;13.434;2023-09-18T08:32:03;22.90;97.80
43338;DHT22;28933;52.492;13.434;2023-09-18T08:34:49;23.00;97.80
43338;DHT22;28933;52.492;13.434;2023-09-18T08:37:35;23.00;97.60
43338;DHT22;28933;52.492;13.434;2023-09-18T08:40:22;23.10;97.60
43338;DHT22;28933;52.492;13.434;2023-09-18T08:43:10;23.20;97.50
43338;DHT22;28933;52.492;13.434;2023-09-18T08:45:57;23.30;97.30
43338;DHT22;28933;52.492;13.434;2023-09-18T08:48:48;23.40;97.30
43338;DHT22;28933;52.492;13.434;2023-09-18T08:51:36;23.50;97.20
43338;DHT22;28933;52.492;13.434;2023-09-18T08:54:22;23.50;97.10
43338;DHT22;28933;52.492;13.434;2023-09-18T08:57:11;23.60;96.80
43338;DHT22;28933;52.492;13.434;2023-09-18T08:59:57;23.80;96.80
43338;DHT22;28933;52.492;13.434;2023-09-18T09:02:45;23.90;96.60
43338;DHT22;28933;52.492;13.434;2023-09-18T09:05:31;24.00;96.40
43338;DHT22;28933;52.492;13.434;2023-09-18T09:08:17;24.10;96.20
43338;DHT22;28933;52.492;13.434;2023-09-18T09:11:03;24.20;96.00
43338;DHT22;28933;52.492;13.434;2023-09-18T09:14:11;24.30;95.90
43338;DHT22;28933;52.492;13.434;2023-09-18T09:17:01;24.50;95.80
43338;DHT22;28933;52.492;13.434;2023-09-18T09:19:48;24.60;95.80
43338;DHT22;28933;52.492;13.434;2023-09-18T09:22:34;24.70;95.50
43338;DHT22;28933;52.492;13.434;2023-09-18T09:28:07;25.00;95.10
43338;DHT22;28933;52.492;13.434;2023-09-18T09:31:00;25.10;95.10
43338;DHT22;28933;52.492;13.434;2023-09-18T09:33:52;25.30;94.70
43338;DHT22;28933;52.492;13.434;2023-09-18T09:36:54;25.40;94.40
43338;DHT22;28933;52.492;13.434;2023-09-18T09:39:50;25.50;94.30
43338;DHT22;28933;52.492;13.434;2023-09-18T09:42:43;25.60;94.00
43338;DHT22;28933;52.492;13.434;2023-09-18T09:45:30;25.70;93.80
43338;DHT22;28933;52.492;13.434;2023-09-18T09:48:19;25.80;93.70
43338;DHT22;28933;52.492;13.434;2023-09-18T09:51:06;25.90;93.70
43338;DHT22;28933;52.492;13.434;2023-09-18T09:53:52;26.00;93.50
43338;DHT22;28933;52.492;13.434;2023-09-18T09:56:49;26.10;93.30
43338;DHT22;28933;52.492;13.434;2023-09-18T09:59:36;26.10;93.20
43338;DHT22;28933;52.492;13.434;2023-09-18T10:02:22;26.20;93.50
43338;DHT22;28933;52.492;13.434;2023-09-18T10:05:09;26.30;93.30
43338;DHT22;28933;52.492;13.434;2023-09-18T10:07:58;26.30;92.80
43338;DHT22;28933;52.492;13.434;2023-09-18T10:10:53;26.40;92.80
43338;DHT22;28933;52.492;13.434;2023-09-18T10:13:40;26.50;92.50
43338;DHT22;28933;52.492;13.434;2023-09-18T10:16:28;26.60;92.30
43338;DHT22;28933;52.492;13.434;2023-09-18T10:19:32;26.70;92.10
43338;DHT22;28933;52.492;13.434;2023-09-18T10:22:31;26.80;91.90
43338;DHT22;28933;52.492;13.434;2023-09-18T10:25:29;26.80;91.90
43338;DHT22;28933;52.492;13.434;2023-09-18T10:28:17;26.90;91.60
43338;DHT22;28933;52.492;13.434;2023-09-18T10:31:03;26.90;91.50
43338;DHT22;28933;52.492;13.434;2023-09-18T10:33:50;26.90;91.60
43338;DHT22;28933;52.492;13.434;2023-09-18T10:36:37;27.00;91.40
43338;DHT22;28933;52.492;13.434;2023-09-18T10:39:25;27.00;91.30
43338;DHT22;28933;52.492;13.434;2023-09-18T10:42:14;27.00;91.00
43338;DHT22;28933;52.492;13.434;2023-09-18T10:45:03;27.00;91.00
43338;DHT22;28933;52.492;13.434;2023-09-18T10:47:53;27.00;90.80
43338;DHT22;28933;52.492;13.434;2023-09-18T10:50:39;27.00;90.70
43338;DHT22;28933;52.492;13.434;2023-09-18T10:53:28;27.00;90.50
43338;DHT22;28933;52.492;13.434;2023-09-18T10:56:15;27.00;90.10
43338;DHT22;28933;52.492;13.434;2023-09-18T10:59:07;27.00;90.50
43338;DHT22;28933;52.492;13.434;2023-09-18T11:01:53;26.90;90.10
43338;DHT22;28933;52.492;13.434;2023-09-18T11:04:41;26.90;90.20
43338;DHT22;28933;52.492;13.434;2023-09-18T11:07:28;26.90;90.10
43338;DHT22;28933;52.492;13.434;2023-09-18T11:10:26;26.90;90.20
43338;DHT22;28933;52.492;13.434;2023-09-18T11:13:28;26.80;90.10
43338;DHT22;28933;52.492;13.434;2023-09-18T11:19:17;26.80;90.10
43338;DHT22;28933;52.492;13.434;2023-09-18T11:22:08;26.80;90.10
43338;DHT22;28933;52.492;13.434;2023-09-18T11:28:24;26.70;90.20
43338;DHT22;28933;52.492;13.434;2023-09-18T11:31:10;26.70;90.10
43338;DHT22;28933;52.492;13.434;2023-09-18T11:33:57;26.80;90.30
43338;DHT22;28933;52.492;13.434;2023-09-18T11:36:43;26.80;90.30
43338;DHT22;28933;52.492;13.434;2023-09-18T11:39:35;26.70;90.40
43338;DHT22;28933;52.492;13.434;2023-09-18T11:42:22;26.80;90.50
43338;DHT22;28933;52.492;13.434;2023-09-18T11:45:16;26.70;90.40
43338;DHT22;28933;52.492;13.434;2023-09-18T11:48:03;26.70;90.50
43338;DHT22;28933;52.492;13.434;2023-09-18T11:50:49;26.70;90.70
43338;DHT22;28933;52.492;13.434;2023-09-18T11:53:38;26.60;90.40
43338;DHT22;28933;52.492;13.434;2023-09-18T11:56:27;26.60;90.50
43338;DHT22;28933;52.492;13.434;2023-09-18T11:59:13;26.60;90.60
43338;DHT22;28933;52.492;13.434;2023-09-18T12:01:59;26.50;90.40
43338;DHT22;28933;52.492;13.434;2023-09-18T12:04:51;26.50;90.50
43338;DHT22;28933;52.492;13.434;2023-09-18T12:07:37;26.50;90.50
43338;DHT22;28933;52.492;13.434;2023-09-18T12:10:25;26.50;90.70
43338;DHT22;28933;52.492;13.434;2023-09-18T12:13:12;26.50;90.70
43338;DHT22;28933;52.492;13.434;2023-09-18T12:16:02;26.60;90.80
43338;DHT22;28933;52.492;13.434;2023-09-18T12:18:51;26.60;90.90
43338;DHT22;28933;52.492;13.434;2023-09-18T12:21:40;26.70;90.90
43338;DHT22;28933;52.492;13.434;2023-09-18T12:24:27;26.80;91.00
43338;DHT22;28933;52.492;13.434;2023-09-18T12:27:13;26.90;90.60
43338;DHT22;28933;52.492;13.434;2023-09-18T12:30:00;27.00;90.70
43338;DHT22;28933;52.492;13.434;2023-09-18T12:32:47;27.10;90.80
43338;DHT22;28933;52.492;13.434;2023-09-18T12:35:35;27.10;90.80
43338;DHT22;28933;52.492;13.434;2023-09-18T12:38:21;27.10;90.40
43338;DHT22;28933;52.492;13.434;2023-09-18T12:41:12;27.10;90.50
43338;DHT22;28933;52.492;13.434;2023-09-18T12:43:59;27.20;90.30
43338;DHT22;28933;52.492;13.434;2023-09-18T12:46:46;27.10;90.10
43338;DHT22;28933;52.492;13.434;2023-09-18T12:49:35;27.10;90.00
43338;DHT22;28933;52.492;13.434;2023-09-18T12:52:22;27.10;89.90
43338;DHT22;28933;52.492;13.434;2023-09-18T12:55:08;27.10;89.90
43338;DHT22;28933;52.492;13.434;2023-09-18T12:57:56;27.00;90.00
43338;DHT22;28933;52.492;13.434;2023-09-18T13:00:49;27.00;90.00
43338;DHT22;28933;52.492;13.434;2023-09-18T13:03:45;27.00;90.00
43338;DHT22;28933;52.492;13.434;2023-09-18T13:06:32;26.90;89.60
43338;DHT22;28933;52.492;13.434;2023-09-18T13:09:19;26.90;89.30
43338;DHT22;28933;52.492;13.434;2023-09-18T13:12:09;26.80;89.30
43338;DHT22;28933;52.492;13.434;2023-09-18T13:14:59;26.80;89.10
43338;DHT22;28933;52.492;13.434;2023-09-18T13:17:46;26.70;89.20
43338;DHT22;28933;52.492;13.434;2023-09-18T13:20:33;26.70;89.50
43338;DHT22;28933;52.492;13.434;2023-09-18T13:23:19;26.60;89.60
43338;DHT22;28933;52.492;13.434;2023-09-18T13:26:06;26.60;89.80
43338;DHT22;28933;52.492;13.434;2023-09-18T13:28:53;26.60;89.60
43338;DHT22;28933;52.492;13.434;2023-09-18T13:31:39;26.60;90.00
43338;DHT22;28933;52.492;13.434;2023-09-18T13:34:25;26.50;90.10
43338;DHT22;28933;52.492;13.434;2023-09-18T13:37:11;26.50;90.00
43338;DHT22;28933;52.492;13.434;2023-09-18T13:39:57;26.50;90.10
43338;DHT22;28933;52.492;13.434;2023-09-18T13:42:43;26.50;90.20
43338;DHT22;28933;52.492;13.434;2023-09-18T13:45:29;26.40;90.50
43338;DHT22;28933;52.492;13.434;2023-09-18T13:48:15;26.30;90.90
43338;DHT22;28933;52.492;13.434;2023-09-18T13:51:02;26.30;91.20
43338;DHT22;28933;52.492;13.434;2023-09-18T13:53:49;26.20;91.40
43338;DHT22;28933;52.492;13.434;2023-09-18T13:56:35;26.10;91.80
43338;DHT22;28933;52.492;13.434;2023-09-18T13:59:21;26.10;92.00
43338;DHT22;28933;52.492;13.434;2023-09-18T14:02:07;26.10;92.30
43338;DHT22;28933;52.492;13.434;2023-09-18T14:04:54;26.10;92.40
43338;DHT22;28933;52.492;13.434;2023-09-18T14:07:40;26.10;92.50
43338;DHT22;28933;52.492;13.434;2023-09-18T14:10:27;26.10;92.80
43338;DHT22;28933;52.492;13.434;2023-09-18T14:13:13;26.10;93.00
43338;DHT22;28933;52.492;13.434;2023-09-18T14:15:59;26.10;93.10
43338;DHT22;28933;52.492;13.434;2023-09-18T14:18:45;26.10;93.20
43338;DHT22;28933;52.492;13.434;2023-09-18T14:21:31;26.10;93.20
43338;DHT22;28933;52.492;13.434;2023-09-18T14:24:19;26.00;93.20
43338;DHT22;28933;52.492;13.434;2023-09-18T14:27:08;26.00;93.30
43338;DHT22;28933;52.492;13.434;2023-09-18T14:29:53;26.00;93.30
43338;DHT22;28933;52.492;13.434;2023-09-18T14:32:40;25.90;93.60
43338;DHT22;28933;52.492;13.434;2023-09-18T14:35:26;25.80;93.10
43338;DHT22;28933;52.492;13.434;2023-09-18T14:38:12;25.80;93.20
43338;DHT22;28933;52.492;13.434;2023-09-18T14:41:00;25.80;93.10
43338;DHT22;28933;52.492;13.434;2023-09-18T14:43:48;25.80;92.90
43338;DHT22;28933;52.492;13.434;2023-09-18T14:46:35;25.80;92.80
43338;DHT22;28933;52.492;13.434;2023-09-18T14:49:22;25.70;92.80
43338;DHT22;28933;52.492;13.434;2023-09-18T14:52:08;25.70;92.70
43338;DHT22;28933;52.492;13.434;2023-09-18T14:54:54;25.70;92.60
43338;DHT22;28933;52.492;13.434;2023-09-18T14:57:41;25.70;92.60
43338;DHT22;28933;52.492;13.434;2023-09-18T15:00:27;25.60;92.60
43338;DHT22;28933;52.492;13.434;2023-09-18T15:03:15;25.60;92.60
43338;DHT22;28933;52.492;13.434;2023-09-18T15:06:01;25.60;92.40
43338;DHT22;28933;52.492;13.434;2023-09-18T15:08:47;25.60;92.30
43338;DHT22;28933;52.492;13.434;2023-09-18T15:11:34;25.60;92.20
43338;DHT22;28933;52.492;13.434;2023-09-18T15:14:22;25.60;92.20
43338;DHT22;28933;52.492;13.434;2023-09-18T15:17:08;25.60;92.00
43338;DHT22;28933;52.492;13.434;2023-09-18T15:19:54;25.60;91.80
43338;DHT22;28933;52.492;13.434;2023-09-18T15:22:41;25.60;91.70
43338;DHT22;28933;52.492;13.434;2023-09-18T15:25:27;25.60;91.50
43338;DHT22;28933;52.492;13.434;2023-09-18T15:28:13;25.60;91.50
43338;DHT22;28933;52.492;13.434;2023-09-18T15:31:00;25.50;91.30
43338;DHT22;28933;52.492;13.434;2023-09-18T15:33:46;25.50;91.30
43338;DHT22;28933;52.492;13.434;2023-09-18T15:36:32;25.50;91.30
43338;DHT22;28933;52.492;13.434;2023-09-18T15:39:18;25.50;91.40
43338;DHT22;28933;52.492;13.434;2023-09-18T15:42:04;25.50;91.20
43338;DHT22;28933;52.492;13.434;2023-09-18T15:44:50;25.50;91.10
43338;DHT22;28933;52.492;13.434;2023-09-18T15:47:37;25.50;91.20
43338;DHT22;28933;52.492;13.434;2023-09-18T15:50:23;25.50;91.10
43338;DHT22;28933;52.492;13.434;2023-09-18T15:53:09;25.50;91.10
43338;DHT22;28933;52.492;13.434;2023-09-18T15:55:55;25.50;91.10
43338;DHT22;28933;52.492;13.434;2023-09-18T15:58:41;25.40;91.10
43338;DHT22;28933;52.492;13.434;2023-09-18T16:01:27;25.40;91.10
43338;DHT22;28933;52.492;13.434;2023-09-18T16:04:14;25.40;91.10
43338;DHT22;28933;52.492;13.434;2023-09-18T16:07:00;25.30;91.10
43338;DHT22;28933;52.492;13.434;2023-09-18T16:09:46;25.30;91.40
43338;DHT22;28933;52.492;13.434;2023-09-18T16:12:31;25.30;91.30
43338;DHT22;28933;52.492;13.434;2023-09-18T16:15:19;25.20;91.30
43338;DHT22;28933;52.492;13.434;2023-09-18T16:18:05;25.20;91.30
43338;DHT22;28933;52.492;13.434;2023-09-18T16:20:51;25.20;91.40
43338;DHT22;28933;52.492;13.434;2023-09-18T16:23:37;25.10;91.60
43338;DHT22;28933;52.492;13.434;2023-09-18T16:26:23;25.10;91.90
43338;DHT22;28933;52.492;13.434;2023-09-18T16:29:08;25.00;92.20
43338;DHT22;28933;52.492;13.434;2023-09-18T16:31:54;25.00;92.50
43338;DHT22;28933;52.492;13.434;2023-09-18T16:34:40;24.90;92.70
43338;DHT22;28933;52.492;13.434;2023-09-18T16:37:28;24.90;93.10
43338;DHT22;28933;52.492;13.434;2023-09-18T16:40:15;24.80;93.40
43338;DHT22;28933;52.492;13.434;2023-09-18T16:43:01;24.70;93.60
43338;DHT22;28933;52.492;13.434;2023-09-18T16:45:47;24.70;93.90
43338;DHT22;28933;52.492;13.434;2023-09-18T16:48:33;24.50;94.10
43338;DHT22;28933;52.492;13.434;2023-09-18T16:51:20;24.50;94.30
43338;DHT22;28933;52.492;13.434;2023-09-18T16:54:06;24.40;94.60
43338;DHT22;28933;52.492;13.434;2023-09-18T16:56:52;24.30;94.60
43338;DHT22;28933;52.492;13.434;2023-09-18T16:59:38;24.30;94.80
43338;DHT22;28933;52.492;13.434;2023-09-18T17:02:24;24.20;95.10
43338;DHT22;28933;52.492;13.434;2023-09-18T17:05:10;24.10;95.20
43338;DHT22;28933;52.492;13.434;2023-09-18T17:07:56;24.10;95.50
43338;DHT22;28933;52.492;13.434;2023-09-18T17:10:41;24.00;95.70
43338;DHT22;28933;52.492;13.434;2023-09-18T17:13:28;23.90;95.90
43338;DHT22;28933;52.492;13.434;2023-09-18T17:16:14;23.90;96.00
43338;DHT22;28933;52.492;13.434;2023-09-18T17:19:04;23.90;96.20
43338;DHT22;28933;52.492;13.434;2023-09-18T17:21:51;23.80;96.20
43338;DHT22;28933;52.492;13.434;2023-09-18T17:24:37;23.80;96.30
43338;DHT22;28933;52.492;13.434;2023-09-18T17:27:24;23.70;96.50
43338;DHT22;28933;52.492;13.434;2023-09-18T17:30:10;23.70;96.60